Time;durP1;ratioP1;P1;durP2;ratioP2;P2;SDS_P1;SDS_P2;PMS_P1;PMS_P2;Temp;Humidity;BMP_temperature;BMP_pressure;BME280_temperature;BME280_humidity;BME280_pressure;Samples;Min_cycle;Max_cycle;Signal;HPM_P1;HPM_P2
2022/01/03 00:02:10;;;;;;;;;3.00;2.00;;;;;13.89;66.72;101616.16;5043042;28;45470;-72
2022/01/03 00:04:36;;;;;;;;;9.00;3.00;;;;;13.81;66.50;101605.47;5057752;28;61412;-72
2022/01/03 00:07:01;;;;;;;;;8.67;3.33;;;;;13.89;66.83;101629.44;5055643;28;45221;-72
2022/01/03 00:09:26;;;;;;;;;9.33;1.00;;;;;13.87;66.78;101613.50;5050163;28;45654;-72
2022/01/03 00:11:52;;;;;;;;;6.00;1.00;;;;;13.78;66.75;101605.44;5058359;28;56664;-72
2022/01/03 00:14:18;;;;;;;;;9.00;1.33;;;;;13.84;66.75;101616.13;5058837;28;59985;-72
2022/01/03 00:16:43;;;;;;;;;4.00;0.33;;;;;13.82;66.69;101611.69;5053000;28;58179;-72
2022/01/03 00:19:08;;;;;;;;;1.00;1.00;;;;;13.79;66.93;101620.47;5064689;28;55034;-72
2022/01/03 00:21:40;;;;;;;;;6.67;1.33;;;;;13.76;66.33;101616.94;5077199;28;46086;-72
2022/01/03 00:24:06;;;;;;;;;7.67;2.33;;;;;13.76;66.60;101625.78;5077057;28;46742;-72
2022/01/03 00:26:33;;;;;;;;;3.67;1.00;;;;;13.72;66.71;101628.38;5059027;28;45302;-72
2022/01/03 00:29:00;;;;;;;;;7.33;2.00;;;;;13.69;66.78;101626.59;5077190;28;45564;-72
2022/01/03 00:31:39;;;;;;;;;2.67;1.00;;;;;13.69;67.00;101630.97;5077210;28;45299;-72
2022/01/03 00:34:05;;;;;;;;;4.00;2.00;;;;;13.64;67.19;101623.00;5058142;28;46002;-72
2022/01/03 00:36:31;;;;;;;;;7.67;1.67;;;;;13.68;66.83;101627.44;5058825;28;45205;-72
2022/01/03 00:38:56;;;;;;;;;4.00;2.33;;;;;13.75;66.94;101642.59;5041731;28;45537;-72
2022/01/03 00:41:22;;;;;;;;;5.67;2.00;;;;;13.74;66.96;101655.81;5058497;28;45559;-72
2022/01/03 00:43:50;;;;;;;;;8.67;3.00;;;;;13.58;66.63;101621.16;5041932;28;46990;-72
2022/01/03 00:46:15;;;;;;;;;5.67;2.00;;;;;13.68;67.28;101643.38;5076220;28;45279;-72
2022/01/03 00:48:41;;;;;;;;;5.00;3.00;;;;;13.69;67.13;101633.63;5058245;28;45395;-72
2022/01/03 00:51:06;;;;;;;;;10.00;1.00;;;;;13.68;66.55;101642.47;5058317;28;48426;-72
2022/01/03 00:53:32;;;;;;;;;8.00;2.00;;;;;13.66;66.78;101637.16;5076485;28;46756;-72
2022/01/03 00:56:13;;;;;;;;;12.33;2.00;;;;;13.61;67.12;101626.50;5076533;28;45383;-72
2022/01/03 00:59:07;;;;;;;;;4.00;2.00;;;;;13.69;66.62;101637.22;5045351;28;45557;-72
2022/01/03 01:01:35;;;;;;;;;7.33;0.67;;;;;13.62;66.85;101627.38;5061492;28;45232;-72
2022/01/03 01:04:00;;;;;;;;;6.67;2.00;;;;;13.71;66.76;101642.53;5074667;28;46517;-72
2022/01/03 01:06:26;;;;;;;;;6.67;2.00;;;;;13.63;66.68;101634.47;5057701;28;58649;-72
2022/01/03 01:08:54;;;;;;;;;6.67;3.00;;;;;13.69;66.71;101638.94;5058502;28;45362;-72
2022/01/03 01:11:20;;;;;;;;;4.67;0.00;;;;;13.60;66.73;101629.13;5058645;28;45588;-72
2022/01/03 01:13:45;;;;;;;;;6.33;2.00;;;;;13.67;67.02;101635.41;5041133;28;60043;-72
2022/01/03 01:16:11;;;;;;;;;2.00;0.00;;;;;13.74;67.03;101642.53;5040619;28;45248;-72
2022/01/03 01:18:37;;;;;;;;;3.67;1.33;;;;;13.62;66.66;101627.38;5058328;28;45305;-72
2022/01/03 01:21:05;;;;;;;;;5.67;3.00;;;;;13.74;66.97;101637.22;5077548;28;45195;-72
2022/01/03 01:23:31;;;;;;;;;6.33;2.00;;;;;13.74;66.77;101635.50;5079747;28;47034;-72
2022/01/03 01:28:41;;;;;;;;;12.67;1.00;;;;;13.79;66.85;101636.41;5079780;28;45327;-72
2022/01/03 01:31:06;;;;;;;;;6.00;2.33;;;;;13.81;66.82;101628.50;5061164;28;50232;-72
2022/01/03 01:33:32;;;;;;;;;4.67;1.67;;;;;13.85;67.11;101622.34;5060926;28;48285;-73
2022/01/03 01:35:58;;;;;;;;;5.33;1.33;;;;;13.84;66.67;101623.19;5061545;28;45366;-72
2022/01/03 01:38:29;;;;;;;;;3.33;1.33;;;;;13.81;66.92;101613.44;5061214;28;45523;-72
2022/01/03 01:40:55;;;;;;;;;4.00;1.00;;;;;13.77;66.99;101624.91;5061354;28;45497;-72
2022/01/03 01:43:25;;;;;;;;;9.33;3.00;;;;;13.76;66.91;101628.44;5079378;28;46991;-72
2022/01/03 01:45:51;;;;;;;;;7.67;2.33;;;;;13.74;67.07;101632.84;5061250;28;45304;-72
2022/01/03 01:48:16;;;;;;;;;1.67;1.00;;;;;13.72;66.88;101625.72;5059925;28;45442;-72
2022/01/03 01:50:42;;;;;;;;;12.67;2.33;;;;;13.68;67.12;101614.19;5052579;28;45552;-72
2022/01/03 01:53:08;;;;;;;;;6.67;1.00;;;;;13.59;66.86;101604.38;5044121;28;46588;-72
2022/01/03 01:55:35;;;;;;;;;8.33;2.00;;;;;13.62;67.10;101614.13;5061250;28;45434;-72
2022/01/03 01:58:22;;;;;;;;;13.67;2.00;;;;;13.63;66.78;101610.56;5042680;28;45339;-72
2022/01/03 02:00:49;;;;;;;;;6.00;2.00;;;;;13.57;66.92;101606.09;5058917;28;45280;-72
2022/01/03 02:03:33;;;;;;;;;2.33;2.00;;;;;13.56;67.22;101604.31;5070544;28;46739;-72
2022/01/03 02:06:10;;;;;;;;;3.67;2.33;;;;;13.55;67.28;101615.81;5079077;28;45220;-72
2022/01/03 02:08:44;;;;;;;;;7.00;3.00;;;;;13.47;67.13;101606.88;5060824;28;45216;-72
2022/01/03 02:11:18;;;;;;;;;5.33;2.00;;;;;13.51;67.46;101621.94;5079198;28;45324;-72
2022/01/03 02:13:43;;;;;;;;;3.67;1.00;;;;;13.48;67.23;101629.00;5061090;28;45646;-72
2022/01/03 02:16:09;;;;;;;;;3.00;1.67;;;;;13.46;67.58;101618.34;5057231;28;47306;-72
2022/01/03 02:18:34;;;;;;;;;7.67;1.33;;;;;13.41;67.62;101613.88;5042728;28;45750;-72
2022/01/03 02:21:01;;;;;;;;;3.00;2.00;;;;;13.35;67.73;101612.03;5046589;28;45427;-72
2022/01/03 02:23:26;;;;;;;;;7.33;3.00;;;;;13.42;67.67;101618.28;5053132;28;45909;-72
2022/01/03 02:25:52;;;;;;;;;2.33;2.00;;;;;13.41;67.90;101611.22;5057981;28;58272;-72
2022/01/03 02:28:20;;;;;;;;;3.00;1.67;;;;;13.38;67.88;101619.16;5057872;28;53899;-72
2022/01/03 02:30:46;;;;;;;;;4.33;1.33;;;;;13.25;68.01;101600.41;5058686;28;45307;-72
2022/01/03 02:33:11;;;;;;;;;4.00;2.67;;;;;13.40;67.57;101634.19;5049361;28;45406;-73
2022/01/03 02:35:38;;;;;;;;;3.00;1.00;;;;;13.36;67.71;101632.38;5065192;28;58710;-72
2022/01/03 02:38:04;;;;;;;;;12.67;2.67;;;;;13.42;67.65;101639.50;5053252;28;45554;-72
2022/01/03 02:40:29;;;;;;;;;8.33;2.00;;;;;13.44;67.47;101635.13;5077971;28;45283;-72
2022/01/03 02:42:55;;;;;;;;;7.00;2.67;;;;;13.46;67.50;101636.03;5077864;28;54871;-72
2022/01/03 02:45:22;;;;;;;;;8.33;3.00;;;;;13.43;67.97;101625.41;5078112;28;45371;-72
2022/01/03 02:47:50;;;;;;;;;10.67;1.00;;;;;13.38;67.89;101600.59;5059615;28;45431;-72
2022/01/03 02:50:15;;;;;;;;;10.33;1.67;;;;;13.43;67.85;101613.03;5049244;28;45521;-72
2022/01/03 02:52:41;;;;;;;;;5.33;1.33;;;;;13.38;67.62;101619.16;5048829;28;46475;-72
2022/01/03 02:55:07;;;;;;;;;6.33;1.00;;;;;13.42;67.79;101624.50;5059964;28;45486;-72
2022/01/03 02:57:52;;;;;;;;;2.00;1.00;;;;;13.41;67.75;101627.13;5078346;28;45484;-72
2022/01/03 03:00:28;;;;;;;;;4.00;1.67;;;;;13.30;67.93;101609.31;5060495;28;45476;-72
2022/01/03 03:02:54;;;;;;;;;8.00;1.33;;;;;13.37;67.91;101612.97;5077889;28;45699;-73
2022/01/03 03:05:19;;;;;;;;;9.67;3.33;;;;;13.45;67.94;101621.88;5078283;28;45403;-73
2022/01/03 03:07:46;;;;;;;;;2.00;1.00;;;;;13.44;67.78;101601.53;5059878;28;47899;-72
2022/01/03 03:10:17;;;;;;;;;3.00;1.67;;;;;13.42;67.71;101591.75;5059883;28;45395;-72
2022/01/03 03:12:42;;;;;;;;;6.67;1.00;;;;;13.45;67.97;101590.06;5059944;28;45920;-72
2022/01/03 03:15:08;;;;;;;;;4.00;1.00;;;;;13.54;67.47;101591.94;5078007;28;45292;-72
2022/01/03 03:17:35;;;;;;;;;3.33;1.00;;;;;13.55;67.98;101589.28;5047023;28;45307;-72
2022/01/03 03:20:06;;;;;;;;;6.00;2.00;;;;;13.57;67.59;101589.28;5058562;28;45450;-72
2022/01/03 03:22:31;;;;;;;;;4.67;1.00;;;;;13.50;67.42;101572.41;5057216;28;46955;-72
2022/01/03 03:25:01;;;;;;;;;6.00;1.33;;;;;13.58;67.82;101591.06;5039350;28;45454;-73
2022/01/03 03:27:26;;;;;;;;;6.00;3.00;;;;;13.59;67.35;101582.25;5047945;28;45269;-73
2022/01/03 03:29:52;;;;;;;;;6.67;3.00;;;;;13.57;67.63;101583.97;5045077;28;45240;-72
2022/01/03 03:32:20;;;;;;;;;5.00;2.33;;;;;13.56;67.64;101576.91;5035645;28;46474;-73
2022/01/03 03:34:46;;;;;;;;;8.33;1.00;;;;;13.58;67.65;101581.38;5056921;28;59621;-72
2022/01/03 03:37:12;;;;;;;;;5.33;1.67;;;;;13.58;67.53;101581.38;5059013;28;45407;-73
2022/01/03 03:39:39;;;;;;;;;1.00;1.00;;;;;13.63;67.41;101581.38;5059292;28;45235;-72
2022/01/03 03:42:05;;;;;;;;;3.67;1.00;;;;;13.67;66.99;101585.88;5076515;28;46905;-72
2022/01/03 03:44:31;;;;;;;;;7.33;1.00;;;;;13.58;67.24;101578.72;5058491;28;45312;-73
2022/01/03 03:46:56;;;;;;;;;7.00;1.67;;;;;13.71;67.20;101586.78;5077302;28;45367;-72
2022/01/03 03:49:22;;;;;;;;;4.33;2.00;;;;;13.72;66.90;101578.84;5077274;28;45185;-72
2022/01/03 03:51:47;;;;;;;;;2.00;0.00;;;;;13.67;67.22;101561.97;5077260;28;46487;-73
2022/01/03 03:54:12;;;;;;;;;6.00;2.33;;;;;13.77;66.96;101577.13;5077235;28;45393;-73
2022/01/03 03:56:38;;;;;;;;;4.00;0.67;;;;;13.79;67.23;101578.00;5077158;28;45363;-73
2022/01/03 03:59:03;;;;;;;;;4.00;1.00;;;;;13.62;67.20;101532.75;5066171;28;49830;-73
2022/01/03 04:01:28;;;;;;;;;9.00;2.00;;;;;13.84;66.79;101570.09;5056330;28;58707;-73
2022/01/03 04:03:54;;;;;;;;;5.67;2.00;;;;;13.85;66.86;101561.28;5045799;28;50835;-72
2022/01/03 04:06:19;;;;;;;;;7.67;1.67;;;;;13.87;66.80;101559.53;5076996;28;48382;-73
2022/01/03 04:08:47;;;;;;;;;10.00;2.00;;;;;13.86;66.33;101557.75;5041931;28;53012;-73
2022/01/03 04:11:16;;;;;;;;;2.00;1.00;;;;;13.72;66.73;101538.13;5038943;28;46241;-73
2022/01/03 04:13:41;;;;;;;;;4.33;2.00;;;;;13.83;66.43;101561.25;5059218;28;45355;-72
2022/01/03 04:16:07;;;;;;;;;5.33;0.67;;;;;13.79;66.85;101548.81;5058865;28;45408;-72
2022/01/03 04:18:32;;;;;;;;;12.33;4.00;;;;;13.70;66.49;101519.56;5063124;28;45382;-72
2022/01/03 04:20:57;;;;;;;;;4.33;1.00;;;;;13.83;66.52;101557.72;5058129;28;61708;-72
2022/01/03 04:23:23;;;;;;;;;6.67;2.00;;;;;13.75;66.65;101520.50;5058684;28;45993;-72
2022/01/03 04:25:50;;;;;;;;;4.33;1.00;;;;;13.82;66.52;101537.34;5058718;28;52534;-72
2022/01/03 04:28:16;;;;;;;;;3.67;1.00;;;;;13.72;66.06;101509.84;5059444;28;45530;-72
2022/01/03 04:30:41;;;;;;;;;4.00;2.33;;;;;13.79;66.58;101532.00;5076367;28;61716;-72
2022/01/03 04:33:07;;;;;;;;;6.00;1.33;;;;;13.71;66.23;101516.03;5076148;28;57973;-72
2022/01/03 04:35:32;;;;;;;;;10.67;2.00;;;;;13.78;66.37;101519.63;5058709;28;45589;-72
2022/01/03 04:37:57;;;;;;;;;5.33;1.00;;;;;13.78;66.40;101523.16;5076368;28;48000;-72
2022/01/03 04:40:23;;;;;;;;;5.00;1.67;;;;;13.72;66.70;101507.19;5075508;28;55821;-72
2022/01/03 04:42:49;;;;;;;;;3.67;1.00;;;;;13.78;66.36;101517.84;5058669;28;45354;-72
2022/01/03 04:45:15;;;;;;;;;2.00;2.00;;;;;13.74;66.47;101510.75;5041712;28;45490;-72
2022/01/03 04:47:40;;;;;;;;;7.00;3.00;;;;;13.79;66.52;101514.31;5058118;28;52087;-72
2022/01/03 04:50:06;;;;;;;;;4.33;3.00;;;;;13.74;66.74;101502.78;5075956;28;58316;-72
2022/01/03 04:52:31;;;;;;;;;14.00;1.33;;;;;13.81;66.54;101511.69;5040679;28;45339;-72
2022/01/03 04:54:57;;;;;;;;;2.00;1.00;;;;;13.81;66.65;101517.00;5052595;28;45347;-72
2022/01/03 04:57:23;;;;;;;;;4.33;2.00;;;;;13.80;66.33;101523.19;5042216;28;45215;-72
2022/01/03 04:59:48;;;;;;;;;5.67;1.00;;;;;13.80;66.17;101523.19;5067152;28;45677;-72
2022/01/03 05:02:14;;;;;;;;;5.33;2.00;;;;;13.69;66.53;101493.91;5064976;28;54346;-72
2022/01/03 05:04:39;;;;;;;;;4.00;1.00;;;;;13.77;66.58;101510.75;5046760;28;45488;-72
2022/01/03 05:07:05;;;;;;;;;4.00;1.33;;;;;13.76;66.27;101511.66;5079831;28;49411;-72
2022/01/03 05:09:30;;;;;;;;;9.33;0.67;;;;;13.75;66.79;101501.91;5079612;28;45892;-72
2022/01/03 05:11:55;;;;;;;;;6.67;1.00;;;;;13.76;66.70;101509.00;5061224;28;48953;-73
2022/01/03 05:14:21;;;;;;;;;5.00;2.00;;;;;13.77;66.63;101504.56;5080048;28;45461;-72
2022/01/03 05:16:46;;;;;;;;;3.33;0.67;;;;;13.71;66.27;101496.56;5078302;28;46790;-72
2022/01/03 05:19:12;;;;;;;;;5.00;1.00;;;;;13.75;66.63;101501.91;5059523;28;45481;-72
2022/01/03 05:21:37;;;;;;;;;8.33;1.00;;;;;13.68;66.35;101502.72;5078457;28;45288;-72
2022/01/03 05:24:02;;;;;;;;;3.33;1.00;;;;;13.73;66.58;101503.66;5061791;28;45283;-72
2022/01/03 05:26:28;;;;;;;;;4.00;2.00;;;;;13.76;66.60;101505.44;5061140;28;45323;-72
2022/01/03 05:28:53;;;;;;;;;4.67;1.00;;;;;13.77;66.77;101512.53;5067919;28;58494;-72
2022/01/03 05:31:19;;;;;;;;;7.67;1.67;;;;;13.78;66.91;101514.31;5059138;28;45314;-72
2022/01/03 05:33:44;;;;;;;;;11.00;1.33;;;;;13.76;66.88;101513.41;5041756;28;45292;-72
2022/01/03 05:36:09;;;;;;;;;1.00;1.00;;;;;13.77;66.82;101517.84;5072555;28;45433;-72
2022/01/03 05:38:35;;;;;;;;;5.67;2.00;;;;;13.70;66.26;101506.28;5060475;28;59937;-72
2022/01/03 05:41:00;;;;;;;;;3.33;1.67;;;;;13.78;66.33;101517.84;5079023;28;45369;-72
2022/01/03 05:43:26;;;;;;;;;10.33;2.33;;;;;13.77;66.87;101517.84;5079325;28;50505;-72
2022/01/03 05:45:51;;;;;;;;;8.67;1.33;;;;;13.75;66.79;101517.84;5060990;28;45307;-72
2022/01/03 05:48:17;;;;;;;;;4.00;1.00;;;;;13.73;66.56;101516.91;5061218;28;45726;-72
2022/01/03 05:50:42;;;;;;;;;9.33;1.33;;;;;13.75;66.87;101512.53;5078798;28;48806;-72
2022/01/03 05:53:07;;;;;;;;;11.67;2.00;;;;;13.75;66.59;101509.00;5078694;28;53753;-72
2022/01/03 05:55:33;;;;;;;;;1.00;1.00;;;;;13.74;66.98;101513.41;5078868;28;45352;-72
2022/01/03 05:57:58;;;;;;;;;4.00;0.00;;;;;13.68;66.84;101508.03;5068058;28;59026;-72
2022/01/03 06:00:25;;;;;;;;;3.33;2.00;;;;;13.73;66.87;101508.06;5040247;28;57530;-72
2022/01/03 06:02:55;;;;;;;;;5.67;1.00;;;;;13.67;66.51;101494.75;5058801;28;45344;-72
2022/01/03 06:05:39;;;;;;;;;7.33;1.00;;;;;13.66;66.72;101501.81;5043861;28;45308;-72
2022/01/03 06:08:05;;;;;;;;;4.00;1.00;;;;;13.72;66.87;101517.78;5078225;28;46108;-72
2022/01/03 06:10:30;;;;;;;;;3.67;1.33;;;;;13.69;66.39;101499.22;5060632;28;45186;-72
2022/01/03 06:12:56;;;;;;;;;3.67;2.00;;;;;13.74;66.94;101509.84;5079158;28;45557;-72
2022/01/03 06:15:24;;;;;;;;;4.00;1.33;;;;;13.74;67.27;101507.19;5031276;28;52103;-73
2022/01/03 06:17:49;;;;;;;;;7.33;2.00;;;;;13.70;66.86;101506.28;5054408;28;45706;-73
2022/01/03 06:20:15;;;;;;;;;4.67;2.00;;;;;13.74;66.91;101504.53;5045008;28;45449;-72
2022/01/03 06:22:40;;;;;;;;;6.67;1.67;;;;;13.67;67.12;101492.97;5078790;28;45291;-72
2022/01/03 06:25:06;;;;;;;;;5.00;2.00;;;;;13.77;66.69;101512.53;5078696;28;45483;-72
2022/01/03 06:27:32;;;;;;;;;8.00;1.00;;;;;13.76;66.84;101503.69;5077383;28;46999;-72
2022/01/03 06:29:57;;;;;;;;;4.00;1.00;;;;;13.73;66.92;101489.50;5059776;28;59945;-73
2022/01/03 06:32:22;;;;;;;;;5.67;2.00;;;;;13.70;66.92;101479.75;5058286;28;55995;-73
2022/01/03 06:34:48;;;;;;;;;4.00;2.33;;;;;13.78;66.90;101495.72;5060136;28;45564;-73
2022/01/03 06:37:13;;;;;;;;;12.00;2.00;;;;;13.79;67.21;101497.50;5039521;28;57822;-73
2022/01/03 06:39:39;;;;;;;;;6.00;2.00;;;;;13.77;67.21;101488.66;5078186;28;45323;-72
2022/01/03 06:42:04;;;;;;;;;4.67;2.00;;;;;13.77;67.13;101476.25;5059527;28;45728;-72
2022/01/03 06:44:30;;;;;;;;;6.67;2.67;;;;;13.77;67.35;101478.03;5050439;28;45346;-72
2022/01/03 06:46:55;;;;;;;;;9.33;3.00;;;;;13.76;67.29;101482.44;5075411;28;55813;-72
2022/01/03 06:49:20;;;;;;;;;6.00;1.00;;;;;13.72;66.68;101477.97;5077316;28;54056;-72
2022/01/03 06:51:46;;;;;;;;;4.33;2.00;;;;;13.75;66.88;101477.13;5077954;28;50927;-72
2022/01/03 06:54:11;;;;;;;;;2.00;2.00;;;;;13.74;66.99;101481.56;5069276;28;45645;-71
2022/01/03 06:56:37;;;;;;;;;8.67;1.67;;;;;13.75;66.82;101487.75;5069272;28;46177;-73
2022/01/03 06:59:03;;;;;;;;;4.33;1.00;;;;;13.73;67.24;101478.88;5073161;28;45515;-71
2022/01/03 07:01:28;;;;;;;;;11.33;3.00;;;;;13.73;66.71;101481.53;5057036;28;45698;-73
2022/01/03 07:03:53;;;;;;;;;8.00;2.33;;;;;13.70;67.19;101473.56;5058826;28;45648;-73
2022/01/03 07:06:19;;;;;;;;;10.67;1.00;;;;;13.57;67.01;101470.78;5075291;28;45999;-82
2022/01/03 07:08:44;;;;;;;;;8.67;1.67;;;;;13.48;67.52;101456.56;5024550;28;49684;-74
2022/01/03 07:11:10;;;;;;;;;7.67;2.67;;;;;13.50;67.55;101471.59;5059127;28;54394;-73
2022/01/03 07:13:43;;;;;;;;;6.00;2.00;;;;;13.44;68.20;101468.91;5076239;28;45465;-74
2022/01/03 07:18:56;;;;;;;;;5.67;2.00;;;;;13.43;68.13;101469.78;5058036;28;45699;-74
2022/01/03 07:21:21;;;;;;;;;4.33;1.00;;;;;13.31;68.12;101448.41;5074859;28;45748;-75
2022/01/03 07:23:46;;;;;;;;;10.00;2.33;;;;;13.41;68.32;101471.50;5058396;28;45915;-74
2022/01/03 07:26:12;;;;;;;;;6.33;2.33;;;;;13.38;68.51;101474.16;5035086;28;45704;-75
2022/01/03 07:28:37;;;;;;;;;3.33;2.00;;;;;13.35;68.81;101458.19;5056286;28;45445;-74
2022/01/03 07:31:03;;;;;;;;;3.67;2.00;;;;;13.34;68.36;101467.91;5054312;28;45651;-73
2022/01/03 07:33:28;;;;;;;;;4.33;2.00;;;;;13.31;69.23;101469.63;5070971;28;45597;-73
2022/01/03 07:35:53;;;;;;;;;9.33;2.00;;;;;13.28;69.15;101457.25;5056573;28;55719;-74
2022/01/03 07:38:19;;;;;;;;;8.33;2.00;;;;;13.28;68.83;101454.59;5050797;27;52873;-72
2022/01/03 07:40:44;;;;;;;;;4.33;1.00;;;;;13.34;68.77;101445.81;5076937;27;51814;-74
2022/01/03 07:43:10;;;;;;;;;5.00;2.00;;;;;13.35;68.33;101447.59;5029966;28;52257;-75
2022/01/03 07:45:35;;;;;;;;;9.33;1.00;;;;;13.36;68.52;101452.00;5031280;28;46580;-72
2022/01/03 07:48:00;;;;;;;;;2.67;1.00;;;;;13.44;68.20;101457.41;5050673;28;47307;-73
2022/01/03 07:50:26;;;;;;;;;5.33;2.00;;;;;13.47;68.18;101449.44;5055428;28;45335;-73
2022/01/03 07:52:52;;;;;;;;;5.33;1.33;;;;;13.49;67.98;101445.97;5057791;28;45594;-73
2022/01/03 07:55:17;;;;;;;;;5.33;2.67;;;;;13.53;68.67;101452.16;5074093;28;46564;-72
2022/01/03 07:57:43;;;;;;;;;8.00;2.33;;;;;13.54;68.12;101440.69;5047711;28;45892;-73
2022/01/03 08:00:10;;;;;;;;;5.33;2.00;;;;;13.58;68.54;101447.78;5036247;28;45596;-73
2022/01/03 08:02:38;;;;;;;;;9.00;2.00;;;;;13.57;68.03;101438.94;5052719;28;46103;-72
2022/01/03 08:05:04;;;;;;;;;7.67;3.00;;;;;13.55;68.33;101424.78;5071983;28;45846;-72
2022/01/03 08:07:30;;;;;;;;;2.33;1.00;;;;;13.57;67.95;101423.00;5073981;28;45459;-72
2022/01/03 08:09:55;;;;;;;;;7.00;1.33;;;;;13.67;67.70;101433.72;5055427;28;56689;-72
2022/01/03 08:12:20;;;;;;;;;5.00;2.00;;;;;13.71;67.76;101435.53;5056199;28;54861;-72
2022/01/03 08:14:46;;;;;;;;;11.00;2.00;;;;;13.65;67.87;101425.75;5072608;28;45563;-72
2022/01/03 08:17:11;;;;;;;;;10.67;2.00;;;;;13.72;68.00;101426.66;5052663;28;45404;-72
2022/01/03 08:19:37;;;;;;;;;6.33;2.00;;;;;13.72;68.02;101431.97;5055345;28;49593;-73
2022/01/03 08:22:02;;;;;;;;;3.33;2.00;;;;;13.73;67.81;101439.94;5038146;28;52629;-72
2022/01/03 08:24:28;;;;;;;;;2.67;2.00;;;;;13.75;68.05;101430.25;5054697;28;46696;-73
2022/01/03 08:26:54;;;;;;;;;4.00;3.00;;;;;13.75;67.96;101427.59;5068756;28;59722;-72
2022/01/03 08:29:19;;;;;;;;;4.33;1.67;;;;;13.78;67.93;101416.09;5055734;28;45500;-72
2022/01/03 08:31:45;;;;;;;;;5.33;2.67;;;;;13.70;67.57;101399.25;5077249;28;45354;-72
2022/01/03 08:34:10;;;;;;;;;11.33;3.00;;;;;13.79;67.73;101412.56;5077760;28;56166;-72
2022/01/03 08:36:36;;;;;;;;;3.00;3.00;;;;;13.73;67.80;101396.59;5060057;28;45650;-72
2022/01/03 08:39:01;;;;;;;;;6.33;2.00;;;;;13.77;67.65;101404.59;5076406;28;49375;-72
2022/01/03 08:41:27;;;;;;;;;5.67;2.00;;;;;13.81;67.88;101406.41;5043036;28;45502;-72
2022/01/03 08:43:52;;;;;;;;;6.00;1.00;;;;;13.76;67.67;101391.31;5055935;28;60276;-73
2022/01/03 08:46:19;;;;;;;;;3.00;2.00;;;;;13.83;68.04;101409.94;5043966;28;45471;-73
2022/01/03 08:48:44;;;;;;;;;8.67;2.00;;;;;13.87;67.72;101413.53;5060045;28;45520;-72
2022/01/03 08:51:10;;;;;;;;;6.00;1.00;;;;;13.75;67.80;101373.63;5059472;28;45554;-72
2022/01/03 08:53:35;;;;;;;;;6.33;2.00;;;;;13.87;67.62;101389.63;5042039;28;56450;-73
2022/01/03 08:56:00;;;;;;;;;10.33;2.00;;;;;13.77;67.88;101374.50;5074931;28;52822;-72
2022/01/03 08:58:26;;;;;;;;;4.33;1.33;;;;;13.84;67.67;101395.78;5075550;28;51933;-73
2022/01/03 09:00:52;;;;;;;;;7.00;3.00;;;;;13.84;67.68;101402.88;5042509;28;45573;-73
2022/01/03 09:03:17;;;;;;;;;4.00;3.00;;;;;13.80;68.05;101393.13;5055258;28;46607;-70
2022/01/03 09:05:43;;;;;;;;;3.00;2.00;;;;;13.82;68.01;101404.63;5058782;28;45527;-71
2022/01/03 09:08:09;;;;;;;;;5.00;2.67;;;;;13.76;67.76;101388.66;5075909;28;45662;-74
2022/01/03 09:10:34;;;;;;;;;3.67;2.00;;;;;13.76;67.79;101391.31;5059827;28;45472;-72
2022/01/03 09:13:00;;;;;;;;;7.67;2.00;;;;;13.81;67.95;101393.13;5075339;28;54588;-71
2022/01/03 09:15:25;;;;;;;;;4.67;2.00;;;;;13.76;68.07;101392.22;5042100;28;45896;-71
2022/01/03 09:17:51;;;;;;;;;1.67;1.67;;;;;13.86;67.67;101409.09;5058692;28;45826;-71
2022/01/03 09:20:16;;;;;;;;;4.00;1.00;;;;;13.87;67.51;101397.59;5077304;28;51104;-71
2022/01/03 09:22:45;;;;;;;;;13.67;3.00;;;;;13.89;68.31;101402.00;5075082;28;46672;-70
2022/01/03 09:30:27;;;;;;;;;6.33;2.00;;;;;13.86;67.83;101379.88;5058669;28;45510;-70
2022/01/03 09:32:53;;;;;;;;;9.67;1.00;;;;;14.01;67.79;101397.66;5076690;28;45459;-72
2022/01/03 09:35:18;;;;;;;;;7.33;3.67;;;;;14.02;67.91;101405.66;5059684;28;45532;-71
2022/01/03 09:37:43;;;;;;;;;9.33;1.67;;;;;13.96;67.62;101376.41;5072145;28;53685;-72
2022/01/03 09:40:09;;;;;;;;;3.67;2.67;;;;;14.06;67.88;101379.97;5054310;28;52922;-71
2022/01/03 09:42:35;;;;;;;;;9.00;1.67;;;;;14.06;67.30;101393.25;5071381;28;46549;-72
2022/01/03 09:45:04;;;;;;;;;7.33;2.00;;;;;14.07;67.62;101392.41;5056904;28;56276;-72
2022/01/03 09:47:31;;;;;;;;;5.00;3.00;;;;;14.06;67.75;101410.13;5210950;22;45378;-71
2022/01/03 09:49:57;;;;;;;;;6.00;1.33;;;;;14.06;67.92;101401.22;5075704;27;45517;-71
2022/01/03 09:52:23;;;;;;;;;4.33;1.00;;;;;14.06;67.94;101402.16;5080066;27;45668;-71
2022/01/03 09:54:49;;;;;;;;;5.33;2.00;;;;;14.04;68.04;101400.34;5058469;28;45575;-71
2022/01/03 09:57:15;;;;;;;;;6.67;2.33;;;;;14.07;68.25;101409.22;5089988;27;45532;-72
2022/01/03 09:59:41;;;;;;;;;3.33;2.00;;;;;14.09;67.79;101419.84;5073278;27;45336;-71
2022/01/03 10:02:07;;;;;;;;;5.00;2.00;;;;;14.11;67.70;101389.78;5061049;27;46591;-72
2022/01/03 10:04:32;;;;;;;;;9.33;2.00;;;;;14.06;67.72;101385.28;5077474;27;45539;-72
2022/01/03 10:06:58;;;;;;;;;7.33;2.00;;;;;14.12;67.61;101390.66;5080865;27;45465;-71
2022/01/03 10:09:24;;;;;;;;;4.67;1.00;;;;;14.16;67.75;101393.31;5077674;27;45398;-71
2022/01/03 10:11:50;;;;;;;;;2.33;1.67;;;;;14.11;67.67;101381.81;5075703;27;46111;-71
2022/01/03 10:14:16;;;;;;;;;2.33;2.00;;;;;14.21;67.47;101392.47;5075779;27;45525;-71
2022/01/03 10:16:42;;;;;;;;;8.67;1.67;;;;;14.14;67.67;101378.28;5076065;27;45426;-70
2022/01/03 10:19:09;;;;;;;;;7.33;2.00;;;;;14.20;67.60;101396.00;5075043;27;45394;-71
2022/01/03 10:21:35;;;;;;;;;2.33;1.00;;;;;14.20;67.29;101393.34;5076374;27;46521;-71
2022/01/03 10:24:01;;;;;;;;;4.33;2.00;;;;;14.13;67.88;101372.06;5076845;27;45517;-71
2022/01/03 10:26:26;;;;;;;;;3.33;2.00;;;;;14.23;67.77;101377.44;5057016;27;45517;-71
2022/01/03 10:29:13;;;;;;;;;4.33;1.33;;;;;14.21;67.33;101373.88;5079723;27;49430;-72
2022/01/03 10:31:39;;;;;;;;;6.00;2.00;;;;;14.12;67.47;101357.03;5072622;27;46757;-71
2022/01/03 10:34:06;;;;;;;;;1.00;1.00;;;;;14.23;67.23;101369.47;5078872;27;45579;-71
2022/01/03 10:36:34;;;;;;;;;4.00;2.00;;;;;14.22;67.43;101357.97;5076406;27;45580;-71
2022/01/03 10:39:11;;;;;;;;;2.67;1.67;;;;;14.21;67.16;101364.13;5079894;27;45339;-71
2022/01/03 10:41:36;;;;;;;;;1.00;1.00;;;;;14.18;67.70;101356.16;5076636;27;45896;-71
2022/01/03 10:44:02;;;;;;;;;5.00;3.00;;;;;14.22;67.72;101355.31;5080627;27;56208;-72
2022/01/03 10:46:29;;;;;;;;;9.00;3.00;;;;;14.25;67.51;101354.41;5076811;27;45524;-71
2022/01/03 10:49:16;;;;;;;;;3.67;2.00;;;;;14.24;67.36;101350.00;5058029;27;45435;-72
2022/01/03 10:51:41;;;;;;;;;4.00;1.00;;;;;14.22;67.23;101339.38;5074625;27;46713;-72
2022/01/03 10:54:11;;;;;;;;;6.00;3.00;;;;;14.23;67.44;101334.94;5076147;27;45464;-71
2022/01/03 10:56:48;;;;;;;;;6.67;2.00;;;;;14.23;67.21;101332.28;5079669;27;45486;-71
2022/01/03 10:59:18;;;;;;;;;4.33;2.00;;;;;14.27;67.08;101344.69;5081208;27;45457;-72
2022/01/03 11:01:46;;;;;;;;;2.00;2.00;;;;;14.25;66.79;101323.44;5078018;27;45932;-71
2022/01/03 11:04:15;;;;;;;;;3.67;2.00;;;;;14.29;67.16;101325.22;5074377;28;45330;-71
2022/01/03 11:11:51;;;;;;;;;6.67;2.00;;;;;14.29;67.29;101305.75;5077241;27;45374;-71
2022/01/03 11:14:36;;;;;;;;;6.00;2.00;;;;;14.31;66.98;101307.50;5041377;28;45513;-72
2022/01/03 11:17:02;;;;;;;;;6.00;3.00;;;;;14.25;67.16;101294.22;5074278;28;46097;-72
2022/01/03 11:19:39;;;;;;;;;7.33;1.67;;;;;14.35;66.72;101309.31;5034794;28;45669;-70
2022/01/03 11:22:05;;;;;;;;;3.67;3.00;;;;;14.34;66.86;101296.91;5072320;28;45796;-70
2022/01/03 11:24:30;;;;;;;;;5.00;2.00;;;;;14.36;66.55;101287.16;5057083;28;45471;-70
2022/01/03 11:26:56;;;;;;;;;7.00;1.00;;;;;14.31;66.97;101278.28;5074302;28;45666;-69
2022/01/03 11:29:21;;;;;;;;;4.00;2.00;;;;;14.37;66.86;101280.06;5073397;28;45319;-69
2022/01/03 11:31:50;;;;;;;;;6.00;2.00;;;;;14.30;66.61;101265.91;5073602;28;45414;-70
2022/01/03 11:34:15;;;;;;;;;6.33;1.00;;;;;14.41;66.65;101277.44;5074252;28;45299;-70
2022/01/03 11:36:41;;;;;;;;;8.67;2.67;;;;;14.46;66.85;101264.16;5058614;28;45508;-69
2022/01/03 11:39:11;;;;;;;;;6.00;2.00;;;;;14.50;66.96;101259.78;5075731;27;45606;-70